ADDS METAR Data INFO
IDs: Format: Raw Decoded Include TAF

Data at: 2353 UTC 24 Feb 2018

KHQZ 242350Z 31004KT 10SM SCT050 15/08 A2991
KHQZ 242250Z 30006KT 10SM SCT080 SCT120 19/09 A2988
KHQZ 242150Z 30006KT 10SM SCT035 BKN110 15/11 A2987
KHQZ 242050Z 30012KT 10SM SCT015 SCT100 14/11 A2986
KHQZ 241950Z 30009KT 10SM BKN008 OVC024 11/10 A2986
KHQZ 241850Z COR 28015KT 10SM BKN007 OVC012 11/11 A2988
KHQZ 241750Z 25011G17KT 2 1/2SM RABR OVC007 18/17 A2985
KHQZ 241650Z 16017G22KT 2SM RA BKN003 OVC007 18/18 A2981
KHQZ 241550Z 14028G40KT 5SM RABR OVC007 19/18 A2975
KHQZ 241450Z 14018G31KT 1SM RABR OVC003 14/14 A2980 RMK TSE1435
KHQZ 241400Z 26012KT 3/4SM TSRABR OVC003 12/12 A2988 RMK TSB54 TS OHD MOV E
KHQZ 241350Z 20005KT 1/2SM FG OVC003 13/13 A2987
KHQZ 241250Z 08006KT 1/2SM FG OVC003 10/10 A2986
KHQZ 241235Z AUTO 00000KT 1SM OVC003 10/09 A2989 RMK AO1 P0002 T00950090
KHQZ 241210Z AUTO 00000KT 3/4SM OVC003 09/09 A2993 RMK AO1 P0001 T00920088
KHQZ 241155Z AUTO 00000KT 1/2SM OVC003 09/09 A2993 RMK AO1 P0001 60001 70003 T00910087 10095 20086
KHQZ 241135Z AUTO 00000KT 1/2SM OVC003 09/09 A2993 RMK AO1 T00900086
KHQZ 241115Z AUTO 00000KT 1/2SM OVC003 09/09 A2992 RMK AO1 T00900085
KHQZ 241055Z AUTO 01003KT 1/2SM OVC003 09/09 A2992 RMK AO1 T00880085
KHQZ 241035Z AUTO 01006KT 1/2SM OVC003 09/08 A2992 RMK AO1 T00870083
KHQZ 241015Z AUTO 35003KT 1/2SM OVC003 09/08 A2994 RMK AO1 T00870083
KHQZ 241000Z AUTO 00000KT 1/2SM OVC003 09/08 A2994 RMK AO1 T00870083
KHQZ 240935Z AUTO 02003KT 3/4SM OVC003 09/08 A2996 RMK AO1 T00880084
KHQZ 240915Z AUTO 00000KT 3/4SM OVC003 09/09 A2996 RMK AO1 T00900085
KHQZ 240855Z AUTO 00000KT 3/4SM OVC003 09/09 A2997 RMK AO1 T00910087
KHQZ 240835Z AUTO 36005KT 1SM OVC003 09/09 A2998 RMK AO1 T00910087
KHQZ 240815Z AUTO 32003KT 2SM OVC003 09/09 A2999 RMK AO1 T00920088
KHQZ 240800Z AUTO 32005KT 4SM OVC005 09/09 A2999 RMK AO1 T00930089
KHQZ 240735Z AUTO 31004KT 5SM OVC005 10/09 A3000 RMK AO1 T00950090
KHQZ 240715Z AUTO 33003KT 5SM OVC005 10/09 A2999 RMK AO1 T00950090
KHQZ 240655Z AUTO 00000KT 5SM OVC005 09/09 A2999 RMK AO1 T00940090
KHQZ 240635Z AUTO 00000KT 4SM OVC005 10/09 A3000 RMK AO1 T00950090
KHQZ 240615Z AUTO 31005KT 5SM OVC007 10/09 A3001 RMK AO1 T00950091
KHQZ 240555Z AUTO 30005KT 5SM OVC005 10/09 A3002 RMK AO1 60001 T00950091 10120 20095 401210043
KHQZ 240535Z AUTO 30004KT 5SM OVC005 10/09 A3003 RMK AO1 T00960092
KHQZ 240515Z AUTO 30005KT 5SM OVC005 10/10 A3003 RMK AO1 T00980095
KHQZ 240455Z AUTO 31005KT 5SM OVC003 10/10 A3004 RMK AO1 P0001 T01000096
KHQZ 240440Z AUTO 29006KT 3SM OVC003 11/10 A3004 RMK AO1 P0001 T01050101
KHQZ 240420Z AUTO 00000KT 3SM OVC003 11/11 A3004 RMK AO1 P0001 T01080105
KHQZ 240355Z AUTO 00000KT 3/4SM OVC003 11/11 A3004 RMK AO1 T01100105
KHQZ 240335Z AUTO 00000KT 1/2SM OVC003 11/11 A3004 RMK AO1 T01100105
KHQZ 240320Z AUTO 29004KT 1/2SM OVC003 11/11 A3004 RMK AO1 T01100105
KHQZ 240255Z AUTO 31003KT 1/2SM OVC003 11/11 A3004 RMK AO1 T01100106
KHQZ 240150Z 28003KT 1/2SM FG OVC003 12/11 A3004
KHQZ 240050Z 00000KT 1/2SM FG OVC003 12/12 A3004
KHQZ 232350Z 12005KT 1/2SM FG OVC003 12/12 A3004
KHQZ 232250Z 19003KT 1/2SM FG OVC003 12/11 A3006
KHQZ 232150Z COR 11003KT 3/4SM BR OVC003 11/10 A3007
KHQZ 232050Z 00000KT 1SM BR OVC003 10/09 A3009
KHQZ 231950Z 06004KT 6SM BR OVC003 10/09 A3012
KHQZ 231850Z 01005KT 6SM BR OVC003 08/07 A3018
KHQZ 231750Z 32005KT 3SM BR OVC003 08/07 A3022
KHQZ 231650Z 03003KT 1SM BR OVC003 07/06 A3021
KHQZ 231550Z 30006KT 3SM BR OVC005 06/06 A3021
KHQZ 231450Z 04004KT 7SM BR OVC005 06/05 A3021
KHQZ 231350Z 06004KT 6SM BR OVC007 06/05 A3022
KHQZ 231250Z 03003KT 5SM BR OVC007 05/05 A3021
KHQZ 231235Z AUTO 05004KT 5SM OVC007 05/05 A3021 RMK AO1 T00510047
KHQZ 231215Z AUTO 00000KT 5SM BKN003 OVC009 05/05 A3022 RMK AO1 T00510047
KHQZ 231155Z AUTO 07003KT 5SM OVC003 05/05 A3023 RMK AO1 60073 70198 T00500046 10050 20043